createdAt,value
2019-04-16T00:01:15.014Z,98957.03
2019-04-16T00:03:46.490Z,98952.13
2019-04-16T00:06:33.883Z,98954.70
2019-04-16T00:09:20.117Z,98947.58
2019-04-16T00:11:53.772Z,98945.20
2019-04-16T00:14:25.109Z,98944.83
2019-04-16T00:16:54.535Z,98948.00
2019-04-16T00:19:23.975Z,98942.03
2019-04-16T00:22:00.825Z,98939.38
2019-04-16T00:24:31.910Z,98942.30
2019-04-16T00:27:01.689Z,98935.56
2019-04-16T00:29:33.020Z,98941.67
2019-04-16T00:32:02.687Z,98937.09
2019-04-16T00:34:33.811Z,98938.59
2019-04-16T00:37:03.319Z,98943.77
2019-04-16T00:39:32.769Z,98933.41
2019-04-16T00:42:02.507Z,98934.00
2019-04-16T00:44:31.944Z,98937.28
2019-04-16T00:47:01.387Z,98933.37
2019-04-16T00:49:30.822Z,98931.60
2019-04-16T00:52:00.525Z,98936.05
2019-04-16T00:54:29.953Z,98934.37
2019-04-16T00:56:59.737Z,98931.55
2019-04-16T00:59:29.453Z,98941.52
2019-04-16T01:01:59.272Z,98937.45
2019-04-16T01:04:28.965Z,98934.98
2019-04-16T01:06:58.410Z,98931.48
2019-04-16T01:09:27.839Z,98931.33
2019-04-16T01:11:57.374Z,98931.71
2019-04-16T01:14:27.487Z,98928.00
2019-04-16T01:16:57.255Z,98929.72
2019-04-16T01:19:26.933Z,98925.37
2019-04-16T01:21:56.384Z,98926.23
2019-04-16T01:24:26.139Z,98917.19
2019-04-16T01:26:58.205Z,98914.52
2019-04-16T01:29:27.285Z,98918.63
2019-04-16T01:32:01.601Z,98909.78
2019-04-16T01:34:32.677Z,98908.98
2019-04-16T01:37:07.635Z,98900.05
2019-04-16T01:39:41.892Z,98898.30
2019-04-16T01:42:11.405Z,98906.48
2019-04-16T01:44:40.845Z,98905.44
2019-04-16T01:47:10.404Z,98908.21
2019-04-16T01:49:42.064Z,98899.94
2019-04-16T01:52:10.965Z,98900.98
2019-04-16T01:54:40.403Z,98908.44
2019-04-16T01:57:10.090Z,98904.64
2019-04-16T01:59:39.866Z,98902.16
2019-04-16T02:02:14.339Z,98907.11
2019-04-16T02:04:40.976Z,98907.69
2019-04-16T02:07:10.656Z,98910.63
2019-04-16T02:09:40.326Z,98903.53
2019-04-16T02:12:12.775Z,98909.20
2019-04-16T02:14:40.925Z,98906.11
2019-04-16T02:17:10.626Z,98908.08
2019-04-16T02:19:40.311Z,98904.87
2019-04-16T02:22:12.635Z,98907.91
2019-04-16T02:24:40.915Z,98903.48
2019-04-16T02:27:10.345Z,98912.83
2019-04-16T02:29:39.792Z,98911.13
2019-04-16T02:32:09.832Z,98905.47
2019-04-16T02:34:39.452Z,98907.55
2019-04-16T02:37:08.959Z,98901.86
2019-04-16T02:39:53.092Z,98896.64
2019-04-16T02:42:10.071Z,98902.02
2019-04-16T02:44:39.568Z,98893.66
2019-04-16T02:47:09.318Z,98898.28
2019-04-16T02:49:38.834Z,98899.84
2019-04-16T02:52:17.313Z,98897.70
2019-04-16T02:54:48.831Z,98895.94
2019-04-16T02:57:31.957Z,98899.33
2019-04-16T03:00:04.761Z,98900.03
2019-04-16T03:02:45.194Z,98892.09
2019-04-16T03:05:16.266Z,98890.05
2019-04-16T03:07:46.021Z,98889.84
2019-04-16T03:10:15.474Z,98886.73
2019-04-16T03:12:45.156Z,98884.94
2019-04-16T03:15:16.222Z,98886.69
2019-04-16T03:17:46.342Z,98886.63
2019-04-16T03:20:20.882Z,98885.97
2019-04-16T03:22:51.800Z,98888.96
2019-04-16T03:25:21.235Z,98886.66
2019-04-16T03:27:51.443Z,98887.91
2019-04-16T03:30:21.840Z,98891.45
2019-04-16T03:32:51.929Z,98898.12
2019-04-16T03:35:25.462Z,98895.65
2019-04-16T03:37:52.671Z,98898.20
2019-04-16T03:40:25.554Z,98898.45
2019-04-16T03:42:53.275Z,98903.63
2019-04-16T03:45:22.705Z,98901.14
2019-04-16T03:47:52.500Z,98906.39
2019-04-16T03:50:21.924Z,98908.53
2019-04-16T03:52:51.355Z,98906.91
2019-04-16T03:55:25.413Z,98907.84
2019-04-16T03:57:52.240Z,98914.72
2019-04-16T04:00:21.743Z,98917.59
2019-04-16T04:02:54.274Z,98921.82
2019-04-16T04:05:22.356Z,98922.75
2019-04-16T04:07:54.989Z,98918.52
2019-04-16T04:10:30.529Z,98919.72
2019-04-16T04:12:54.190Z,98928.19
2019-04-16T04:15:26.467Z,98933.70
2019-04-16T04:17:55.415Z,98932.27
2019-04-16T04:20:25.130Z,98932.72
2019-04-16T04:22:57.064Z,98938.52
2019-04-16T04:25:26.070Z,98935.44
2019-04-16T04:27:55.887Z,98932.53
2019-04-16T04:30:28.813Z,98937.70
2019-04-16T04:32:57.278Z,98942.19
2019-04-16T04:35:26.730Z,98936.14
2019-04-16T04:37:56.454Z,98940.22
2019-04-16T04:40:25.938Z,98947.52
2019-04-16T04:42:57.685Z,98947.71
2019-04-16T04:45:27.124Z,98946.44
2019-04-16T04:47:56.831Z,98956.26
2019-04-16T04:50:26.541Z,98961.80
2019-04-16T04:52:56.248Z,98960.99
2019-04-16T04:55:26.940Z,98962.58
2019-04-16T04:57:56.793Z,98962.12
2019-04-16T05:00:26.235Z,98959.13
2019-04-16T05:02:55.670Z,98965.61
2019-04-16T05:05:25.861Z,98963.09
2019-04-16T05:07:59.653Z,98966.11
2019-04-16T05:10:26.738Z,98962.31
2019-04-16T05:12:56.482Z,98980.60
2019-04-16T05:15:26.375Z,98974.86
2019-04-16T05:17:57.640Z,98975.13
2019-04-16T05:20:29.805Z,98979.05
2019-04-16T05:22:58.506Z,98979.74
2019-04-16T05:25:33.016Z,98982.34
2019-04-16T05:27:59.347Z,98984.83
2019-04-16T05:30:28.787Z,98984.83
2019-04-16T05:32:58.225Z,98978.34
2019-04-16T05:35:27.670Z,98980.31
2019-04-16T05:37:57.366Z,98981.20
2019-04-16T05:40:28.032Z,98981.04
2019-04-16T05:42:58.910Z,98980.06
2019-04-16T05:45:29.428Z,98985.92
2019-04-16T05:47:58.859Z,98993.96
2019-04-16T05:50:29.803Z,98983.96
2019-04-16T05:52:59.490Z,98991.27
2019-04-16T05:55:31.352Z,99003.63
2019-04-16T05:58:00.842Z,99008.51
2019-04-16T06:00:32.220Z,99002.34
2019-04-16T06:03:01.926Z,99009.09
2019-04-16T06:05:31.375Z,99006.66
2019-04-16T06:08:10.865Z,99005.58
2019-04-16T06:10:40.788Z,99010.61
2019-04-16T06:13:12.886Z,99014.97
2019-04-16T06:15:44.604Z,99008.97
2019-04-16T06:18:18.031Z,99010.34
2019-04-16T06:20:49.427Z,99015.85
2019-04-16T06:23:21.290Z,99013.19
2019-04-16T06:25:52.656Z,99020.10
2019-04-16T06:28:24.475Z,99023.38
2019-04-16T06:31:05.619Z,99029.27
2019-04-16T06:33:44.302Z,99022.66
2019-04-16T06:36:24.827Z,99029.70
2019-04-16T06:39:10.797Z,99027.59
2019-04-16T06:41:57.468Z,99029.83
2019-04-16T06:44:29.855Z,99031.92
2019-04-16T06:47:10.610Z,99032.95
2019-04-16T06:49:41.927Z,99029.22
2019-04-16T06:52:29.280Z,99042.78
2019-04-16T06:55:12.406Z,99041.91
2019-04-16T06:57:52.224Z,99040.81
2019-04-16T07:00:33.867Z,99034.53
2019-04-16T07:03:18.142Z,99028.75
2019-04-16T07:06:04.028Z,99017.43
2019-04-16T07:08:50.686Z,99016.25
2019-04-16T07:11:21.835Z,99008.73
2019-04-16T07:13:51.534Z,99009.86
2019-04-16T07:16:20.989Z,99004.17
2019-04-16T07:18:50.435Z,99003.63
2019-04-16T07:21:19.867Z,99004.64
2019-04-16T07:23:49.406Z,99001.88
2019-04-16T07:26:19.389Z,98999.09
2019-04-16T07:28:58.555Z,98990.44
2019-04-16T07:31:43.608Z,98988.23
2019-04-16T07:34:32.935Z,98988.07
2019-04-16T07:37:17.380Z,98993.41
2019-04-16T07:40:09.998Z,98995.75
2019-04-16T07:42:57.956Z,98986.24
2019-04-16T07:45:43.847Z,98984.14
2019-04-16T07:48:33.134Z,98990.59
2019-04-16T07:51:20.509Z,98991.58
2019-04-16T07:53:54.427Z,98991.02
2019-04-16T07:56:28.166Z,98984.31
2019-04-16T07:59:00.612Z,98984.85
2019-04-16T08:01:29.117Z,98987.19
2019-04-16T08:04:01.018Z,98994.61
2019-04-16T08:06:30.067Z,98983.62
2019-04-16T08:08:59.512Z,98993.69
2019-04-16T08:11:29.278Z,98992.72
2019-04-16T08:13:58.738Z,98997.35
2019-04-16T08:16:28.171Z,98992.46
2019-04-16T08:18:57.635Z,98991.36
2019-04-16T08:21:27.075Z,98981.73
2019-04-16T08:24:00.878Z,98981.55
2019-04-16T08:26:30.326Z,98984.92
2019-04-16T08:28:59.769Z,98978.52
2019-04-16T08:31:30.200Z,98973.52
2019-04-16T08:33:59.887Z,98973.02
2019-04-16T08:36:29.320Z,98963.53
2019-04-16T08:38:58.767Z,98970.81
2019-04-16T08:41:28.218Z,98967.39
2019-04-16T08:43:59.734Z,98971.06
2019-04-16T08:46:29.109Z,98974.49
2019-04-16T08:48:58.609Z,98974.86
2019-04-16T08:51:30.923Z,98971.70
2019-04-16T08:53:59.314Z,98976.20
2019-04-16T08:56:28.767Z,98969.94
2019-04-16T08:59:00.885Z,98974.11
2019-04-16T09:01:31.324Z,98964.63
2019-04-16T09:04:02.433Z,98966.77
2019-04-16T09:06:32.006Z,98960.27
2019-04-16T09:09:12.623Z,98965.47
2019-04-16T09:11:35.600Z,98963.25
2019-04-16T09:14:06.860Z,98969.72
2019-04-16T09:16:43.706Z,98965.54
2019-04-16T09:19:15.083Z,98962.38
2019-04-16T09:21:44.772Z,98955.48
2019-04-16T09:24:21.893Z,98956.48
2019-04-16T09:26:56.482Z,98959.48
2019-04-16T09:29:44.028Z,98958.73
2019-04-16T09:32:20.726Z,98953.80
2019-04-16T09:35:10.734Z,98949.23
2019-04-16T09:37:47.555Z,98945.03
2019-04-16T09:40:22.376Z,98948.84
2019-04-16T09:42:52.062Z,98944.05
2019-04-16T09:45:24.386Z,98936.13
2019-04-16T09:47:53.047Z,98937.48
2019-04-16T09:50:22.644Z,98933.28
2019-04-16T09:52:55.224Z,98927.69
2019-04-16T09:55:23.923Z,98931.49
2019-04-16T09:57:53.364Z,98927.70
2019-04-16T10:00:24.870Z,98927.96
2019-04-16T10:02:55.300Z,98931.05
2019-04-16T10:05:26.538Z,98929.97
2019-04-16T10:07:57.035Z,98930.69
2019-04-16T10:10:27.857Z,98931.23
2019-04-16T10:12:58.145Z,98921.86
2019-04-16T10:15:27.621Z,98924.86
2019-04-16T10:17:58.531Z,98924.67
2019-04-16T10:20:28.515Z,98925.79
2019-04-16T10:23:00.004Z,98921.05
2019-04-16T10:25:29.525Z,98921.70
2019-04-16T10:28:01.991Z,98920.66
2019-04-16T10:30:34.152Z,98922.44
2019-04-16T10:33:03.557Z,98915.28
2019-04-16T10:35:33.007Z,98911.64
2019-04-16T10:38:04.460Z,98909.69
2019-04-16T10:40:35.546Z,98905.97
2019-04-16T10:43:22.641Z,98904.39
2019-04-16T10:45:57.598Z,98901.05
2019-04-16T10:48:30.738Z,98902.18
2019-04-16T10:51:15.560Z,98897.33
2019-04-16T10:53:59.526Z,98900.28
2019-04-16T10:56:31.712Z,98896.91
2019-04-16T10:59:11.414Z,98887.27
2019-04-16T11:01:42.495Z,98891.48
2019-04-16T11:04:17.517Z,98888.14
2019-04-16T11:06:48.621Z,98888.10
2019-04-16T11:09:18.043Z,98885.85
2019-04-16T11:11:47.518Z,98877.33
2019-04-16T11:14:16.970Z,98874.77
2019-04-16T11:16:48.271Z,98875.86
2019-04-16T11:19:18.139Z,98879.43
2019-04-16T11:21:47.576Z,98865.45
2019-04-16T11:24:20.270Z,98866.02
2019-04-16T11:26:48.199Z,98866.69
2019-04-16T11:29:17.639Z,98855.69
2019-04-16T11:31:47.116Z,98858.84
2019-04-16T11:34:17.597Z,98855.45
2019-04-16T11:36:47.300Z,98858.77
2019-04-16T11:39:16.776Z,98862.48
2019-04-16T11:41:46.206Z,98860.56
2019-04-16T11:44:17.313Z,98859.20
2019-04-16T11:46:46.963Z,98858.27
2019-04-16T11:49:16.731Z,98852.57
2019-04-16T11:51:46.494Z,98850.37
2019-04-16T11:54:16.215Z,98849.79
2019-04-16T11:56:46.002Z,98840.84
2019-04-16T11:59:15.753Z,98848.36
2019-04-16T12:01:47.714Z,98845.95
2019-04-16T12:04:24.362Z,98848.82
2019-04-16T12:07:11.978Z,98838.31
2019-04-16T12:09:47.161Z,98834.22
2019-04-16T12:12:18.219Z,98832.07
2019-04-16T12:14:53.505Z,98837.34
2019-04-16T12:17:30.367Z,98839.88
2019-04-16T12:20:01.508Z,98841.09
2019-04-16T12:22:32.911Z,98834.52
2019-04-16T12:25:07.764Z,98828.81
2019-04-16T12:27:48.989Z,98836.86
2019-04-16T12:30:36.194Z,98833.09
2019-04-16T12:33:22.700Z,98835.01
2019-04-16T12:35:51.935Z,98843.47
2019-04-16T12:38:29.253Z,98847.16
2019-04-16T12:41:04.365Z,98846.45
2019-04-16T12:43:38.247Z,98848.82
2019-04-16T12:46:10.027Z,98856.68
2019-04-16T12:48:57.597Z,98845.84
2019-04-16T12:51:39.822Z,98847.85
2019-04-16T12:54:25.567Z,98855.55
2019-04-16T12:57:16.190Z,98850.70
2019-04-16T12:59:58.356Z,98860.11
2019-04-16T13:02:29.744Z,98853.33
2019-04-16T13:05:09.822Z,98854.94
2019-04-16T13:07:40.932Z,98847.99
2019-04-16T13:10:14.578Z,98852.61
2019-04-16T13:12:51.159Z,98852.27
2019-04-16T13:15:28.009Z,98853.43
2019-04-16T13:18:04.631Z,98857.57
2019-04-16T13:20:38.466Z,98858.98
2019-04-16T13:23:15.231Z,98862.59
2019-04-16T13:25:56.114Z,98870.17
2019-04-16T13:28:25.925Z,98870.41
2019-04-16T13:30:55.357Z,98873.97
2019-04-16T13:33:24.813Z,98881.19
2019-04-16T13:35:54.259Z,98874.59
2019-04-16T13:38:25.687Z,98879.81
2019-04-16T13:40:55.482Z,98882.31
2019-04-16T13:43:26.805Z,98883.01
2019-04-16T13:45:58.163Z,98889.92
2019-04-16T13:48:29.367Z,98882.66
2019-04-16T13:51:00.778Z,98893.57
2019-04-16T13:53:43.785Z,98895.49
2019-04-16T13:56:18.499Z,98888.81
2019-04-16T13:58:47.952Z,98885.05
2019-04-16T14:01:19.034Z,98878.55
2019-04-16T14:03:48.770Z,98879.47
2019-04-16T14:06:18.303Z,98877.66
2019-04-16T14:08:47.755Z,98873.86
2019-04-16T14:11:19.682Z,98877.23
2019-04-16T14:13:50.150Z,98878.11
2019-04-16T14:16:19.542Z,98868.95
2019-04-16T14:18:49.233Z,98866.30
2019-04-16T14:21:19.093Z,98867.72
2019-04-16T14:23:49.823Z,98870.61
2019-04-16T14:26:19.275Z,98868.38
2019-04-16T14:28:52.243Z,98874.63
2019-04-16T14:31:22.127Z,98875.04
2019-04-16T14:33:59.181Z,98878.23
2019-04-16T14:36:28.981Z,98876.34
2019-04-16T14:39:06.805Z,98876.06
2019-04-16T14:41:34.579Z,98886.09
2019-04-16T14:44:05.671Z,98885.45
2019-04-16T14:46:35.187Z,98882.08
2019-04-16T14:49:04.636Z,98882.20
2019-04-16T14:51:34.351Z,98888.81
2019-04-16T14:54:05.697Z,98888.08
2019-04-16T14:56:39.179Z,98896.23
2019-04-16T14:59:32.979Z,98910.33
2019-04-16T15:02:04.102Z,98910.71
2019-04-16T15:04:35.192Z,98917.70
2019-04-16T15:07:12.435Z,98921.10
2019-04-16T15:09:43.871Z,98921.48
2019-04-16T15:12:13.081Z,98931.98
2019-04-16T15:14:51.208Z,98937.05
2019-04-16T15:17:22.318Z,98941.28
2019-04-16T15:19:53.485Z,98939.41
2019-04-16T15:22:27.224Z,98947.34
2019-04-16T15:25:14.560Z,98944.49
2019-04-16T15:27:49.238Z,98941.43
2019-04-16T15:30:28.313Z,98945.41
2019-04-16T15:33:13.906Z,98946.98
2019-04-16T15:36:00.247Z,98949.95
2019-04-16T15:38:37.538Z,98948.70
2019-04-16T15:41:24.937Z,98947.69
2019-04-16T15:44:11.756Z,98951.02
2019-04-16T15:46:59.284Z,98959.30
2019-04-16T15:49:45.380Z,98959.34
2019-04-16T15:52:29.822Z,98956.31
2019-04-16T15:55:15.984Z,98957.87
2019-04-16T15:57:51.352Z,98967.79
2019-04-16T16:00:28.641Z,98969.48
2019-04-16T16:03:04.016Z,98975.30
2019-04-16T16:05:35.515Z,98969.45
2019-04-16T16:08:15.596Z,98969.02
2019-04-16T16:10:47.612Z,98976.72
2019-04-16T16:13:17.307Z,98978.05
2019-04-16T16:15:46.983Z,98977.72
2019-04-16T16:18:16.427Z,98983.81
2019-04-16T16:20:45.886Z,98984.12
2019-04-16T16:23:15.581Z,98990.09
2019-04-16T16:25:45.310Z,98992.17
2019-04-16T16:28:14.747Z,98992.08
2019-04-16T16:30:44.534Z,99000.19
2019-04-16T16:33:13.977Z,98994.58
2019-04-16T16:35:57.063Z,98997.64
2019-04-16T16:38:15.169Z,98996.54
2019-04-16T16:40:49.414Z,99004.35
2019-04-16T16:43:16.327Z,98996.83
2019-04-16T16:46:04.573Z,98992.92
2019-04-16T16:48:34.625Z,98999.99
2019-04-16T16:51:04.148Z,98996.09
2019-04-16T16:53:37.972Z,98994.78
2019-04-16T16:56:24.418Z,98995.44
2019-04-16T16:58:59.411Z,98997.77
2019-04-16T17:01:49.169Z,99002.29
2019-04-16T17:04:20.329Z,99003.88
2019-04-16T17:06:50.070Z,99014.10
2019-04-16T17:09:21.226Z,99020.20
2019-04-16T17:11:51.018Z,99016.67
2019-04-16T17:14:20.457Z,99012.86
2019-04-16T17:16:49.913Z,99017.41
2019-04-16T17:19:19.627Z,99012.20
2019-04-16T17:21:49.341Z,99015.45
2019-04-16T17:24:19.112Z,99015.24
2019-04-16T17:26:49.909Z,99016.64
2019-04-16T17:29:20.003Z,99024.44
2019-04-16T17:31:50.339Z,99026.59
2019-04-16T17:34:20.139Z,99021.12
2019-04-16T17:36:49.583Z,99025.49
2019-04-16T17:39:20.990Z,99029.66
2019-04-16T17:42:03.977Z,99033.56
2019-04-16T17:44:33.447Z,99028.45
2019-04-16T17:47:10.606Z,99031.25
2019-04-16T17:49:53.732Z,99036.79
2019-04-16T17:52:43.503Z,99036.22
2019-04-16T17:55:14.859Z,99047.11
2019-04-16T17:57:55.315Z,99066.62
2019-04-16T18:00:42.245Z,99059.91
2019-04-16T18:03:22.482Z,99066.20
2019-04-16T18:05:53.832Z,99069.61
2019-04-16T18:08:41.659Z,99072.40
2019-04-16T18:11:13.062Z,99076.57
2019-04-16T18:13:44.164Z,99083.07
2019-04-16T18:16:16.674Z,99084.91
2019-04-16T18:19:00.541Z,99089.36
2019-04-16T18:21:31.582Z,99094.16
2019-04-16T18:24:08.475Z,99096.58
2019-04-16T18:26:45.263Z,99098.95
2019-04-16T18:29:21.860Z,99106.39
2019-04-16T18:31:57.588Z,99106.48
2019-04-16T18:34:34.886Z,99104.97
2019-04-16T18:37:17.775Z,99109.71
2019-04-16T18:39:54.867Z,99117.11
2019-04-16T18:42:26.215Z,99118.27
2019-04-16T18:45:13.689Z,99119.39
2019-04-16T18:48:03.099Z,99122.36
2019-04-16T18:50:26.054Z,99125.22
2019-04-16T18:52:54.034Z,99128.67
2019-04-16T18:55:23.483Z,99133.02
2019-04-16T18:57:53.258Z,99144.99
2019-04-16T19:00:40.778Z,99145.13
2019-04-16T19:03:14.735Z,99144.55
2019-04-16T19:05:41.569Z,99160.48
2019-04-16T19:08:11.332Z,99156.64
2019-04-16T19:10:40.855Z,99167.44
2019-04-16T19:13:11.694Z,99167.22
2019-04-16T19:15:41.491Z,99170.16
2019-04-16T19:18:19.612Z,99170.25
2019-04-16T19:20:42.111Z,99173.47
2019-04-16T19:23:11.553Z,99172.00
2019-04-16T19:25:41.006Z,99176.13
2019-04-16T19:28:10.745Z,99172.02
2019-04-16T19:30:40.555Z,99177.08
2019-04-16T19:33:10.262Z,99181.38
2019-04-16T19:35:39.711Z,99180.05
2019-04-16T19:38:09.500Z,99176.77
2019-04-16T19:40:38.943Z,99181.66
2019-04-16T19:43:08.381Z,99184.48
2019-04-16T19:45:40.680Z,99180.75
2019-04-16T19:48:09.251Z,99172.95
2019-04-16T19:50:38.710Z,99175.06
2019-04-16T19:53:13.669Z,99180.06
2019-04-16T19:55:39.591Z,99174.02
2019-04-16T19:58:09.036Z,99170.66
2019-04-16T20:00:38.805Z,99173.17
2019-04-16T20:03:08.514Z,99180.89
2019-04-16T20:05:37.978Z,99181.37
2019-04-16T20:08:07.414Z,99188.94
2019-04-16T20:10:37.127Z,99190.52
2019-04-16T20:13:06.574Z,99199.41
2019-04-16T20:15:36.039Z,99195.28
2019-04-16T20:18:07.257Z,99199.79
2019-04-16T20:20:37.123Z,99199.88
2019-04-16T20:23:06.908Z,99201.95
2019-04-16T20:25:36.620Z,99204.63
2019-04-16T20:28:09.333Z,99208.53
2019-04-16T20:30:37.976Z,99207.23
2019-04-16T20:33:07.419Z,99214.17
2019-04-16T20:35:36.878Z,99214.58
2019-04-16T20:38:06.559Z,99216.48
2019-04-16T20:40:36.012Z,99217.19
2019-04-16T20:43:05.458Z,99212.73
2019-04-16T20:45:34.913Z,99208.09
2019-04-16T20:48:04.349Z,99217.92
2019-04-16T20:50:33.808Z,99214.64
2019-04-16T20:53:06.227Z,99213.73
2019-04-16T20:55:34.768Z,99216.55
2019-04-16T20:58:04.515Z,99213.66
2019-04-16T21:00:35.565Z,99217.84
2019-04-16T21:03:05.011Z,99214.27
2019-04-16T21:05:35.796Z,99210.53
2019-04-16T21:08:05.642Z,99214.34
2019-04-16T21:10:36.315Z,99220.67
2019-04-16T21:13:06.433Z,99221.78
2019-04-16T21:15:36.222Z,99215.91
2019-04-16T21:18:10.459Z,99217.08
2019-04-16T21:20:37.092Z,99215.09
2019-04-16T21:23:07.166Z,99224.37
2019-04-16T21:25:37.119Z,99222.78
2019-04-16T21:28:21.372Z,99218.11
2019-04-16T21:30:52.451Z,99219.23
2019-04-16T21:33:29.266Z,99224.83
2019-04-16T21:36:04.246Z,99220.44
2019-04-16T21:38:33.408Z,99228.72
2019-04-16T21:41:03.129Z,99227.97
2019-04-16T21:43:35.771Z,99230.49
2019-04-16T21:46:04.088Z,99224.09
2019-04-16T21:48:36.530Z,99234.17
2019-04-16T21:51:06.347Z,99234.58
2019-04-16T21:53:35.807Z,99239.95
2019-04-16T21:56:08.191Z,99237.88
2019-04-16T21:58:36.795Z,99240.09
2019-04-16T22:01:10.928Z,99240.06
2019-04-16T22:03:42.229Z,99243.77
2019-04-16T22:06:11.901Z,99253.44
2019-04-16T22:08:41.687Z,99251.62
2019-04-16T22:11:11.808Z,99254.98
2019-04-16T22:13:42.192Z,99252.20
2019-04-16T22:16:11.937Z,99252.73
2019-04-16T22:18:42.319Z,99255.61
2019-04-16T22:21:11.985Z,99253.13
2019-04-16T22:23:41.790Z,99259.89
2019-04-16T22:26:11.492Z,99259.75
2019-04-16T22:28:44.134Z,99264.70
2019-04-16T22:31:12.123Z,99262.36
2019-04-16T22:33:41.845Z,99265.17
2019-04-16T22:36:11.555Z,99267.42
2019-04-16T22:38:42.899Z,99269.87
2019-04-16T22:41:27.606Z,99265.47
2019-04-16T22:44:15.905Z,99268.84
2019-04-16T22:46:53.119Z,99272.47
2019-04-16T22:49:23.281Z,99265.83
2019-04-16T22:51:53.141Z,99275.47
2019-04-16T22:54:22.600Z,99278.58
2019-04-16T22:56:53.971Z,99281.31
2019-04-16T22:59:23.422Z,99277.30
2019-04-16T23:01:53.461Z,99276.89
2019-04-16T23:04:26.146Z,99280.84
2019-04-16T23:06:54.857Z,99284.80
2019-04-16T23:09:26.203Z,99289.33
2019-04-16T23:11:56.428Z,99281.97
2019-04-16T23:14:26.659Z,99284.86
2019-04-16T23:16:56.171Z,99293.86
2019-04-16T23:19:26.063Z,99291.27
2019-04-16T23:21:55.876Z,99288.54
2019-04-16T23:24:25.574Z,99292.32
2019-04-16T23:26:55.020Z,99296.84
2019-04-16T23:29:24.476Z,99294.84
2019-04-16T23:31:56.128Z,99293.69
2019-04-16T23:34:25.086Z,99293.72
2019-04-16T23:36:54.604Z,99294.98
2019-04-16T23:39:24.055Z,99296.14
2019-04-16T23:41:53.783Z,99299.55
2019-04-16T23:44:25.758Z,99299.03
2019-04-16T23:47:10.178Z,99307.14
2019-04-16T23:49:48.389Z,99302.61
2019-04-16T23:52:22.193Z,99305.58
2019-04-16T23:54:58.713Z,99311.67
2019-04-16T23:57:46.215Z,99305.58
